sensor_id;sensor_type;location;lat;lon;timestamp;pressure;altitude;pressure_sealevel;temperature
32827;BMP280;51059;42.058;27.986;2024-02-16T00:02:01;78417.59;;;-131.54
32827;BMP280;51059;42.058;27.986;2024-02-16T00:04:27;78407.91;;;-131.54
32827;BMP280;51059;42.058;27.986;2024-02-16T00:06:53;78413.72;;;-131.54
32827;BMP280;51059;42.058;27.986;2024-02-16T00:09:19;78421.47;;;-131.54
32827;BMP280;51059;42.058;27.986;2024-02-16T00:11:45;78407.91;;;-131.54
32827;BMP280;51059;42.058;27.986;2024-02-16T00:14:11;78419.53;;;-131.54
32827;BMP280;51059;42.058;27.986;2024-02-16T00:16:36;78446.69;;;-131.54
32827;BMP280;51059;42.058;27.986;2024-02-16T00:19:02;78429.22;;;-131.54
32827;BMP280;51059;42.058;27.986;2024-02-16T00:21:28;78429.22;;;-131.54
32827;BMP280;51059;42.058;27.986;2024-02-16T00:23:54;78427.28;;;-131.54
32827;BMP280;51059;42.058;27.986;2024-02-16T00:26:21;78409.84;;;-131.54
32827;BMP280;51059;42.058;27.986;2024-02-16T00:28:48;78411.78;;;-131.54
32827;BMP280;51059;42.058;27.986;2024-02-16T00:31:20;78421.47;;;-131.54
32827;BMP280;51059;42.058;27.986;2024-02-16T00:33:46;78431.19;;;-131.54
32827;BMP280;51059;42.058;27.986;2024-02-16T00:36:11;78435.06;;;-131.54
32827;BMP280;51059;42.058;27.986;2024-02-16T00:38:37;78438.94;;;-131.54
32827;BMP280;51059;42.058;27.986;2024-02-16T00:41:03;78431.19;;;-131.54
32827;BMP280;51059;42.058;27.986;2024-02-16T00:43:30;78419.53;;;-131.54
32827;BMP280;51059;42.058;27.986;2024-02-16T00:45:56;78400.16;;;-131.54
32827;BMP280;51059;42.058;27.986;2024-02-16T00:48:22;78433.13;;;-131.54
32827;BMP280;51059;42.058;27.986;2024-02-16T00:50:47;78433.13;;;-131.54
32827;BMP280;51059;42.058;27.986;2024-02-16T00:53:14;78429.22;;;-131.54
32827;BMP280;51059;42.058;27.986;2024-02-16T00:55:40;78415.66;;;-131.54
32827;BMP280;51059;42.058;27.986;2024-02-16T00:58:08;78419.53;;;-131.54
32827;BMP280;51059;42.058;27.986;2024-02-16T01:00:35;78421.47;;;-131.54
32827;BMP280;51059;42.058;27.986;2024-02-16T01:03:01;78398.22;;;-131.54
32827;BMP280;51059;42.058;27.986;2024-02-16T01:05:27;78405.97;;;-131.54
32827;BMP280;51059;42.058;27.986;2024-02-16T01:07:52;78394.34;;;-131.54
32827;BMP280;51059;42.058;27.986;2024-02-16T01:10:18;78400.16;;;-131.54
32827;BMP280;51059;42.058;27.986;2024-02-16T01:12:45;78417.59;;;-131.54
32827;BMP280;51059;42.058;27.986;2024-02-16T01:15:10;78423.41;;;-131.54
32827;BMP280;51059;42.058;27.986;2024-02-16T01:17:36;78427.28;;;-131.54
32827;BMP280;51059;42.058;27.986;2024-02-16T01:20:02;78435.06;;;-131.54
32827;BMP280;51059;42.058;27.986;2024-02-16T01:22:30;78427.28;;;-131.54
32827;BMP280;51059;42.058;27.986;2024-02-16T01:24:55;78413.72;;;-131.54
32827;BMP280;51059;42.058;27.986;2024-02-16T01:27:21;78413.72;;;-131.54
32827;BMP280;51059;42.058;27.986;2024-02-16T01:29:47;78415.66;;;-131.54
32827;BMP280;51059;42.058;27.986;2024-02-16T01:32:13;78409.84;;;-131.54
32827;BMP280;51059;42.058;27.986;2024-02-16T01:34:39;78404.03;;;-131.54
32827;BMP280;51059;42.058;27.986;2024-02-16T01:37:05;78407.91;;;-131.54
32827;BMP280;51059;42.058;27.986;2024-02-16T01:39:31;78413.72;;;-131.54
32827;BMP280;51059;42.058;27.986;2024-02-16T01:41:57;78411.78;;;-131.54
32827;BMP280;51059;42.058;27.986;2024-02-16T01:44:23;78429.22;;;-131.54
32827;BMP280;51059;42.058;27.986;2024-02-16T01:46:49;78415.66;;;-131.54
32827;BMP280;51059;42.058;27.986;2024-02-16T01:49:15;78423.41;;;-131.54
32827;BMP280;51059;42.058;27.986;2024-02-16T01:51:44;78411.78;;;-131.54
32827;BMP280;51059;42.058;27.986;2024-02-16T01:54:11;78435.06;;;-131.54
32827;BMP280;51059;42.058;27.986;2024-02-16T01:56:39;78431.19;;;-131.54
32827;BMP280;51059;42.058;27.986;2024-02-16T01:59:06;78423.41;;;-131.54
32827;BMP280;51059;42.058;27.986;2024-02-16T02:01:32;78415.66;;;-131.54
32827;BMP280;51059;42.058;27.986;2024-02-16T02:03:58;78423.41;;;-131.54
32827;BMP280;51059;42.058;27.986;2024-02-16T02:06:24;78411.78;;;-131.54
32827;BMP280;51059;42.058;27.986;2024-02-16T02:08:50;78402.09;;;-131.54
32827;BMP280;51059;42.058;27.986;2024-02-16T02:11:17;78405.97;;;-131.54
32827;BMP280;51059;42.058;27.986;2024-02-16T02:13:43;78405.97;;;-131.54
32827;BMP280;51059;42.058;27.986;2024-02-16T02:16:10;78404.03;;;-131.54
32827;BMP280;51059;42.058;27.986;2024-02-16T02:18:36;78411.78;;;-131.54
32827;BMP280;51059;42.058;27.986;2024-02-16T02:21:03;78419.53;;;-131.54
32827;BMP280;51059;42.058;27.986;2024-02-16T02:23:29;78427.28;;;-131.54
32827;BMP280;51059;42.058;27.986;2024-02-16T02:25:55;78448.63;;;-131.54
32827;BMP280;51059;42.058;27.986;2024-02-16T02:28:21;78427.28;;;-131.54
32827;BMP280;51059;42.058;27.986;2024-02-16T02:30:50;78423.41;;;-131.54
32827;BMP280;51059;42.058;27.986;2024-02-16T02:33:16;78427.28;;;-131.54
32827;BMP280;51059;42.058;27.986;2024-02-16T02:35:42;78423.41;;;-131.54
32827;BMP280;51059;42.058;27.986;2024-02-16T02:38:08;78427.28;;;-131.54
32827;BMP280;51059;42.058;27.986;2024-02-16T02:40:35;78438.94;;;-131.54
32827;BMP280;51059;42.058;27.986;2024-02-16T02:43:01;78435.06;;;-131.54
32827;BMP280;51059;42.058;27.986;2024-02-16T02:45:27;78431.19;;;-131.54
32827;BMP280;51059;42.058;27.986;2024-02-16T02:47:53;78444.75;;;-131.54
32827;BMP280;51059;42.058;27.986;2024-02-16T02:50:19;78435.06;;;-131.54
32827;BMP280;51059;42.058;27.986;2024-02-16T02:52:44;78435.06;;;-131.54
32827;BMP280;51059;42.058;27.986;2024-02-16T02:55:11;78442.81;;;-131.54
32827;BMP280;51059;42.058;27.986;2024-02-16T02:57:37;78487.41;;;-131.54
32827;BMP280;51059;42.058;27.986;2024-02-16T03:00:07;78442.81;;;-131.54
32827;BMP280;51059;42.058;27.986;2024-02-16T03:02:40;78433.13;;;-131.54
32827;BMP280;51059;42.058;27.986;2024-02-16T03:05:06;78437.00;;;-131.54
32827;BMP280;51059;42.058;27.986;2024-02-16T03:07:35;78435.06;;;-131.54
32827;BMP280;51059;42.058;27.986;2024-02-16T03:10:02;78442.81;;;-131.54
32827;BMP280;51059;42.058;27.986;2024-02-16T03:12:28;78444.75;;;-131.54
32827;BMP280;51059;42.058;27.986;2024-02-16T03:14:55;78452.50;;;-131.54
32827;BMP280;51059;42.058;27.986;2024-02-16T03:17:21;78444.75;;;-131.54
32827;BMP280;51059;42.058;27.986;2024-02-16T03:19:47;78464.13;;;-131.54
32827;BMP280;51059;42.058;27.986;2024-02-16T03:22:13;78450.56;;;-131.54
32827;BMP280;51059;42.058;27.986;2024-02-16T03:24:39;78454.44;;;-131.54
32827;BMP280;51059;42.058;27.986;2024-02-16T03:27:05;78450.56;;;-131.54
32827;BMP280;51059;42.058;27.986;2024-02-16T03:29:30;78491.28;;;-131.54
32827;BMP280;51059;42.058;27.986;2024-02-16T03:31:56;78454.44;;;-131.54
32827;BMP280;51059;42.058;27.986;2024-02-16T03:34:22;78458.31;;;-131.54
32827;BMP280;51059;42.058;27.986;2024-02-16T03:36:48;78475.75;;;-131.54
32827;BMP280;51059;42.058;27.986;2024-02-16T03:39:14;78485.47;;;-131.54
32827;BMP280;51059;42.058;27.986;2024-02-16T03:41:46;78469.94;;;-131.54
32827;BMP280;51059;42.058;27.986;2024-02-16T03:44:15;78485.47;;;-131.54
32827;BMP280;51059;42.058;27.986;2024-02-16T03:46:45;78485.47;;;-131.54
32827;BMP280;51059;42.058;27.986;2024-02-16T03:49:11;78477.69;;;-131.54
32827;BMP280;51059;42.058;27.986;2024-02-16T03:51:37;78473.81;;;-131.54
32827;BMP280;51059;42.058;27.986;2024-02-16T03:54:03;78483.53;;;-131.54
32827;BMP280;51059;42.058;27.986;2024-02-16T03:56:30;78473.81;;;-131.54
32827;BMP280;51059;42.058;27.986;2024-02-16T03:58:56;78477.69;;;-131.54
32827;BMP280;51059;42.058;27.986;2024-02-16T04:01:23;78532.00;;;-131.54
32827;BMP280;51059;42.058;27.986;2024-02-16T04:03:49;78491.28;;;-131.54
32827;BMP280;51059;42.058;27.986;2024-02-16T04:06:14;78491.28;;;-131.54
32827;BMP280;51059;42.058;27.986;2024-02-16T04:08:40;78479.63;;;-131.54
32827;BMP280;51059;42.058;27.986;2024-02-16T04:11:07;78487.41;;;-131.54
32827;BMP280;51059;42.058;27.986;2024-02-16T04:13:33;78473.81;;;-131.54
32827;BMP280;51059;42.058;27.986;2024-02-16T04:15:59;78481.56;;;-131.54
32827;BMP280;51059;42.058;27.986;2024-02-16T04:18:24;78481.56;;;-131.54
32827;BMP280;51059;42.058;27.986;2024-02-16T04:20:50;78477.69;;;-131.54
32827;BMP280;51059;42.058;27.986;2024-02-16T04:23:16;78477.69;;;-131.54
32827;BMP280;51059;42.058;27.986;2024-02-16T04:25:43;78483.53;;;-131.54
32827;BMP280;51059;42.058;27.986;2024-02-16T04:28:09;78493.22;;;-131.54
32827;BMP280;51059;42.058;27.986;2024-02-16T04:30:35;78493.22;;;-131.54
32827;BMP280;51059;42.058;27.986;2024-02-16T04:33:03;78543.63;;;-131.54
32827;BMP280;51059;42.058;27.986;2024-02-16T04:35:29;78502.91;;;-131.54
32827;BMP280;51059;42.058;27.986;2024-02-16T04:37:55;78497.09;;;-131.54
32827;BMP280;51059;42.058;27.986;2024-02-16T04:40:21;78497.09;;;-131.54
32827;BMP280;51059;42.058;27.986;2024-02-16T04:42:47;78504.84;;;-131.54
32827;BMP280;51059;42.058;27.986;2024-02-16T04:45:13;78497.09;;;-131.54
32827;BMP280;51059;42.058;27.986;2024-02-16T04:47:40;78506.78;;;-131.54
32827;BMP280;51059;42.058;27.986;2024-02-16T04:50:07;78516.47;;;-131.54
32827;BMP280;51059;42.058;27.986;2024-02-16T04:52:37;78520.34;;;-131.54
32827;BMP280;51059;42.058;27.986;2024-02-16T04:55:04;78520.34;;;-131.54
32827;BMP280;51059;42.058;27.986;2024-02-16T04:57:35;78520.34;;;-131.54
32827;BMP280;51059;42.058;27.986;2024-02-16T05:00:03;78524.22;;;-131.54
32827;BMP280;51059;42.058;27.986;2024-02-16T05:02:28;78504.84;;;-131.54
32827;BMP280;51059;42.058;27.986;2024-02-16T05:04:54;78551.38;;;-131.54
32827;BMP280;51059;42.058;27.986;2024-02-16T05:07:20;78539.75;;;-131.54
32827;BMP280;51059;42.058;27.986;2024-02-16T05:09:46;78508.72;;;-131.54
32827;BMP280;51059;42.058;27.986;2024-02-16T05:12:12;78522.28;;;-131.54
32827;BMP280;51059;42.058;27.986;2024-02-16T05:14:38;78516.47;;;-131.54
32827;BMP280;51059;42.058;27.986;2024-02-16T05:17:04;78516.47;;;-131.54
32827;BMP280;51059;42.058;27.986;2024-02-16T05:19:33;78520.34;;;-131.54
32827;BMP280;51059;42.058;27.986;2024-02-16T05:22:00;78524.22;;;-131.54
32827;BMP280;51059;42.058;27.986;2024-02-16T05:24:26;78539.75;;;-131.54
32827;BMP280;51059;42.058;27.986;2024-02-16T05:26:52;78545.56;;;-131.54
32827;BMP280;51059;42.058;27.986;2024-02-16T05:29:18;78537.81;;;-131.54
32827;BMP280;51059;42.058;27.986;2024-02-16T05:31:43;78535.88;;;-131.54
32827;BMP280;51059;42.058;27.986;2024-02-16T05:34:09;78533.94;;;-131.54
32827;BMP280;51059;42.058;27.986;2024-02-16T05:36:35;78553.31;;;-131.54
32827;BMP280;51059;42.058;27.986;2024-02-16T05:39:02;78555.25;;;-131.54
32827;BMP280;51059;42.058;27.986;2024-02-16T05:41:36;78547.50;;;-131.54
32827;BMP280;51059;42.058;27.986;2024-02-16T05:44:04;78539.75;;;-131.54
32827;BMP280;51059;42.058;27.986;2024-02-16T05:46:30;78532.00;;;-131.54
32827;BMP280;51059;42.058;27.986;2024-02-16T05:48:56;78539.75;;;-131.54
32827;BMP280;51059;42.058;27.986;2024-02-16T05:51:24;78547.50;;;-131.54
32827;BMP280;51059;42.058;27.986;2024-02-16T05:53:52;78547.50;;;-131.54
32827;BMP280;51059;42.058;27.986;2024-02-16T05:56:17;78543.63;;;-131.54
32827;BMP280;51059;42.058;27.986;2024-02-16T05:58:43;78549.44;;;-131.54
32827;BMP280;51059;42.058;27.986;2024-02-16T06:01:09;78566.88;;;-131.54
32827;BMP280;51059;42.058;27.986;2024-02-16T06:03:41;78557.19;;;-131.54
32827;BMP280;51059;42.058;27.986;2024-02-16T06:06:07;78563.00;;;-131.54
32827;BMP280;51059;42.058;27.986;2024-02-16T06:08:34;78564.94;;;-131.54
32827;BMP280;51059;42.058;27.986;2024-02-16T06:11:00;78574.63;;;-131.54
32827;BMP280;51059;42.058;27.986;2024-02-16T06:13:27;78561.06;;;-131.54
32827;BMP280;51059;42.058;27.986;2024-02-16T06:15:54;78561.06;;;-131.54
32827;BMP280;51059;42.058;27.986;2024-02-16T06:18:21;78566.88;;;-131.54
32827;BMP280;51059;42.058;27.986;2024-02-16T06:20:46;78563.00;;;-131.54
32827;BMP280;51059;42.058;27.986;2024-02-16T06:23:12;78572.69;;;-131.54
32827;BMP280;51059;42.058;27.986;2024-02-16T06:25:38;78572.69;;;-131.54
32827;BMP280;51059;42.058;27.986;2024-02-16T06:28:04;78566.88;;;-131.54
32827;BMP280;51059;42.058;27.986;2024-02-16T06:30:30;78572.69;;;-131.54
32827;BMP280;51059;42.058;27.986;2024-02-16T06:32:57;78566.88;;;-131.54
32827;BMP280;51059;42.058;27.986;2024-02-16T06:35:24;78574.63;;;-131.54
32827;BMP280;51059;42.058;27.986;2024-02-16T06:37:50;78586.28;;;-131.54
32827;BMP280;51059;42.058;27.986;2024-02-16T06:40:17;78586.28;;;-131.54
32827;BMP280;51059;42.058;27.986;2024-02-16T06:42:43;78597.91;;;-131.54
32827;BMP280;51059;42.058;27.986;2024-02-16T06:45:09;78566.88;;;-131.54
32827;BMP280;51059;42.058;27.986;2024-02-16T06:47:35;78580.44;;;-131.54
32827;BMP280;51059;42.058;27.986;2024-02-16T06:50:01;78566.88;;;-131.54
32827;BMP280;51059;42.058;27.986;2024-02-16T06:52:26;78564.94;;;-131.54
32827;BMP280;51059;42.058;27.986;2024-02-16T06:54:52;78566.88;;;-131.54
32827;BMP280;51059;42.058;27.986;2024-02-16T06:57:18;78566.88;;;-131.54
32827;BMP280;51059;42.058;27.986;2024-02-16T06:59:45;78570.75;;;-131.54
32827;BMP280;51059;42.058;27.986;2024-02-16T07:02:11;78572.69;;;-131.54
32827;BMP280;51059;42.058;27.986;2024-02-16T07:04:41;78574.63;;;-131.54
32827;BMP280;51059;42.058;27.986;2024-02-16T07:07:07;78582.41;;;-131.54
32827;BMP280;51059;42.058;27.986;2024-02-16T07:09:34;78574.63;;;-131.54
32827;BMP280;51059;42.058;27.986;2024-02-16T07:11:59;78578.50;;;-131.54
32827;BMP280;51059;42.058;27.986;2024-02-16T07:14:25;78613.41;;;-131.54
32827;BMP280;51059;42.058;27.986;2024-02-16T07:16:52;78588.22;;;-131.54
32827;BMP280;51059;42.058;27.986;2024-02-16T07:19:18;78582.41;;;-131.54
32827;BMP280;51059;42.058;27.986;2024-02-16T07:21:44;78586.28;;;-131.54
32827;BMP280;51059;42.058;27.986;2024-02-16T07:24:10;78588.22;;;-131.54
32827;BMP280;51059;42.058;27.986;2024-02-16T07:26:35;78586.28;;;-131.54
32827;BMP280;51059;42.058;27.986;2024-02-16T07:29:02;78588.22;;;-131.54
32827;BMP280;51059;42.058;27.986;2024-02-16T07:31:32;78588.22;;;-131.54
32827;BMP280;51059;42.058;27.986;2024-02-16T07:34:00;78594.03;;;-131.54
32827;BMP280;51059;42.058;27.986;2024-02-16T07:36:26;78597.91;;;-131.54
32827;BMP280;51059;42.058;27.986;2024-02-16T07:38:52;78588.22;;;-131.54
32827;BMP280;51059;42.058;27.986;2024-02-16T07:41:18;78590.16;;;-131.54
32827;BMP280;51059;42.058;27.986;2024-02-16T07:43:44;78590.16;;;-131.54
32827;BMP280;51059;42.058;27.986;2024-02-16T07:46:10;78632.81;;;-131.54
32827;BMP280;51059;42.058;27.986;2024-02-16T07:48:37;78603.72;;;-131.54
32827;BMP280;51059;42.058;27.986;2024-02-16T07:51:03;78607.59;;;-131.54
32827;BMP280;51059;42.058;27.986;2024-02-16T07:53:30;78590.16;;;-131.54
32827;BMP280;51059;42.058;27.986;2024-02-16T07:55:56;78597.91;;;-131.54
32827;BMP280;51059;42.058;27.986;2024-02-16T07:58:24;78603.72;;;-131.54
32827;BMP280;51059;42.058;27.986;2024-02-16T08:00:50;78584.34;;;-131.54
32827;BMP280;51059;42.058;27.986;2024-02-16T08:03:16;78586.28;;;-131.54
32827;BMP280;51059;42.058;27.986;2024-02-16T08:05:42;78603.72;;;-131.54
32827;BMP280;51059;42.058;27.986;2024-02-16T08:08:08;78605.66;;;-131.54
32827;BMP280;51059;42.058;27.986;2024-02-16T08:10:33;78601.78;;;-131.54
32827;BMP280;51059;42.058;27.986;2024-02-16T08:13:01;78601.78;;;-131.54
32827;BMP280;51059;42.058;27.986;2024-02-16T08:15:26;78599.84;;;-131.54
32827;BMP280;51059;42.058;27.986;2024-02-16T08:17:53;78654.13;;;-131.54
32827;BMP280;51059;42.058;27.986;2024-02-16T08:20:19;78615.34;;;-131.54
32827;BMP280;51059;42.058;27.986;2024-02-16T08:22:46;78603.72;;;-131.54
32827;BMP280;51059;42.058;27.986;2024-02-16T08:25:12;78615.34;;;-131.54
32827;BMP280;51059;42.058;27.986;2024-02-16T08:27:38;78605.66;;;-131.54
32827;BMP280;51059;42.058;27.986;2024-02-16T08:30:05;78603.72;;;-131.54
32827;BMP280;51059;42.058;27.986;2024-02-16T08:32:32;78605.66;;;-131.54
32827;BMP280;51059;42.058;27.986;2024-02-16T08:34:58;78609.53;;;-131.54
32827;BMP280;51059;42.058;27.986;2024-02-16T08:37:24;78619.22;;;-131.54
32827;BMP280;51059;42.058;27.986;2024-02-16T08:39:50;78623.09;;;-131.54
32827;BMP280;51059;42.058;27.986;2024-02-16T08:42:16;78617.28;;;-131.54
32827;BMP280;51059;42.058;27.986;2024-02-16T08:44:42;78640.56;;;-131.54
32827;BMP280;51059;42.058;27.986;2024-02-16T08:47:09;78640.56;;;-131.54
32827;BMP280;51059;42.058;27.986;2024-02-16T08:49:35;78646.38;;;-131.54
32827;BMP280;51059;42.058;27.986;2024-02-16T08:52:01;78642.50;;;-131.54
32827;BMP280;51059;42.058;27.986;2024-02-16T08:54:26;78640.56;;;-131.54
32827;BMP280;51059;42.058;27.986;2024-02-16T08:56:56;78658.00;;;-131.54
32827;BMP280;51059;42.058;27.986;2024-02-16T08:59:21;78638.63;;;-131.54
32827;BMP280;51059;42.058;27.986;2024-02-16T09:01:47;78640.56;;;-131.54
32827;BMP280;51059;42.058;27.986;2024-02-16T09:04:13;78640.56;;;-131.54
32827;BMP280;51059;42.058;27.986;2024-02-16T09:06:41;78640.56;;;-131.54
32827;BMP280;51059;42.058;27.986;2024-02-16T09:09:07;78646.38;;;-131.54
32827;BMP280;51059;42.058;27.986;2024-02-16T09:11:33;78642.50;;;-131.54
32827;BMP280;51059;42.058;27.986;2024-02-16T09:14:03;78640.56;;;-131.54
32827;BMP280;51059;42.058;27.986;2024-02-16T09:16:28;78661.88;;;-131.54
32827;BMP280;51059;42.058;27.986;2024-02-16T09:18:54;78650.25;;;-131.54
32827;BMP280;51059;42.058;27.986;2024-02-16T09:21:21;78671.59;;;-131.54
32827;BMP280;51059;42.058;27.986;2024-02-16T09:23:50;78638.63;;;-131.54
32827;BMP280;51059;42.058;27.986;2024-02-16T09:26:16;78627.00;;;-131.54
32827;BMP280;51059;42.058;27.986;2024-02-16T09:28:42;78625.03;;;-131.54
32827;BMP280;51059;42.058;27.986;2024-02-16T09:31:08;78621.16;;;-131.54
32827;BMP280;51059;42.058;27.986;2024-02-16T09:33:35;78636.69;;;-131.54
32827;BMP280;51059;42.058;27.986;2024-02-16T09:36:02;78615.34;;;-131.54
32827;BMP280;51059;42.058;27.986;2024-02-16T09:38:27;78586.28;;;-131.54
32827;BMP280;51059;42.058;27.986;2024-02-16T09:40:53;78563.00;;;-131.54
32827;BMP280;51059;42.058;27.986;2024-02-16T09:43:26;78586.28;;;-131.54
32827;BMP280;51059;42.058;27.986;2024-02-16T09:45:58;78586.28;;;-131.54
32827;BMP280;51059;42.058;27.986;2024-02-16T09:48:29;78588.22;;;-131.54
32827;BMP280;51059;42.058;27.986;2024-02-16T09:50:55;78578.50;;;-131.54
32827;BMP280;51059;42.058;27.986;2024-02-16T09:53:25;78623.09;;;-131.54
32827;BMP280;51059;42.058;27.986;2024-02-16T09:55:52;78628.94;;;-131.54
32827;BMP280;51059;42.058;27.986;2024-02-16T09:58:19;78601.78;;;-131.54
32827;BMP280;51059;42.058;27.986;2024-02-16T10:00:51;78597.91;;;-131.54
32827;BMP280;51059;42.058;27.986;2024-02-16T10:05:50;78609.53;;;-131.54
32827;BMP280;51059;42.058;27.986;2024-02-16T10:08:17;78613.41;;;-131.54
32827;BMP280;51059;42.058;27.986;2024-02-16T10:10:43;78609.53;;;-131.54
32827;BMP280;51059;42.058;27.986;2024-02-16T10:13:09;78601.78;;;-131.54
32827;BMP280;51059;42.058;27.986;2024-02-16T10:15:37;78625.03;;;-131.54
32827;BMP280;51059;42.058;27.986;2024-02-16T10:20:29;78632.81;;;-131.54
32827;BMP280;51059;42.058;27.986;2024-02-16T10:23:11;78628.94;;;-131.54
32827;BMP280;51059;42.058;27.986;2024-02-16T10:25:39;78636.69;;;-131.54
32827;BMP280;51059;42.058;27.986;2024-02-16T10:28:10;78630.88;;;-131.54
32827;BMP280;51059;42.058;27.986;2024-02-16T10:30:40;78605.66;;;-131.54
32827;BMP280;51059;42.058;27.986;2024-02-16T10:33:08;78590.16;;;-131.54
32827;BMP280;51059;42.058;27.986;2024-02-16T10:35:35;78601.78;;;-131.54
32827;BMP280;51059;42.058;27.986;2024-02-16T10:38:03;78617.28;;;-131.54
32827;BMP280;51059;42.058;27.986;2024-02-16T10:40:41;78605.66;;;-131.54
32827;BMP280;51059;42.058;27.986;2024-02-16T10:43:09;78617.28;;;-131.54
32827;BMP280;51059;42.058;27.986;2024-02-16T10:45:38;78659.94;;;-131.54
32827;BMP280;51059;42.058;27.986;2024-02-16T10:48:06;78636.69;;;-131.54
32827;BMP280;51059;42.058;27.986;2024-02-16T10:50:34;78611.47;;;-131.54
32827;BMP280;51059;42.058;27.986;2024-02-16T10:53:23;78625.03;;;-131.54
32827;BMP280;51059;42.058;27.986;2024-02-16T10:55:50;78652.19;;;-131.54
32827;BMP280;51059;42.058;27.986;2024-02-16T10:58:18;78667.69;;;-131.54
32827;BMP280;51059;42.058;27.986;2024-02-16T11:00:52;78646.38;;;-131.54
32827;BMP280;51059;42.058;27.986;2024-02-16T11:03:23;78634.75;;;-131.54
32827;BMP280;51059;42.058;27.986;2024-02-16T11:05:50;78648.31;;;-131.54
32827;BMP280;51059;42.058;27.986;2024-02-16T11:08:18;78656.06;;;-131.54
32827;BMP280;51059;42.058;27.986;2024-02-16T11:11:22;78656.06;;;-131.54
32827;BMP280;51059;42.058;27.986;2024-02-16T11:13:48;78652.19;;;-131.54
32827;BMP280;51059;42.058;27.986;2024-02-16T11:16:17;78654.13;;;-131.54
32827;BMP280;51059;42.058;27.986;2024-02-16T11:18:45;78654.13;;;-131.54
32827;BMP280;51059;42.058;27.986;2024-02-16T11:21:15;78654.13;;;-131.54
32827;BMP280;51059;42.058;27.986;2024-02-16T11:23:42;78654.13;;;-131.54
32827;BMP280;51059;42.058;27.986;2024-02-16T11:26:10;78646.38;;;-131.54
32827;BMP280;51059;42.058;27.986;2024-02-16T11:28:42;78644.44;;;-131.54
32827;BMP280;51059;42.058;27.986;2024-02-16T11:31:09;78687.09;;;-131.54
32827;BMP280;51059;42.058;27.986;2024-02-16T11:33:35;78654.13;;;-131.54
32827;BMP280;51059;42.058;27.986;2024-02-16T11:36:04;78658.00;;;-131.54
32827;BMP280;51059;42.058;27.986;2024-02-16T11:38:33;78661.88;;;-131.54
32827;BMP280;51059;42.058;27.986;2024-02-16T11:41:05;78656.06;;;-131.54
32827;BMP280;51059;42.058;27.986;2024-02-16T11:43:31;78654.13;;;-131.54
32827;BMP280;51059;42.058;27.986;2024-02-16T11:46:20;78661.88;;;-131.54
32827;BMP280;51059;42.058;27.986;2024-02-16T11:48:46;78669.63;;;-131.54
32827;BMP280;51059;42.058;27.986;2024-02-16T11:51:15;78648.31;;;-131.54
32827;BMP280;51059;42.058;27.986;2024-02-16T11:53:43;78646.38;;;-131.54
32827;BMP280;51059;42.058;27.986;2024-02-16T11:56:21;78656.06;;;-131.54
32827;BMP280;51059;42.058;27.986;2024-02-16T11:58:47;78652.19;;;-131.54
32827;BMP280;51059;42.058;27.986;2024-02-16T12:01:13;78663.81;;;-131.54
32827;BMP280;51059;42.058;27.986;2024-02-16T12:03:41;78654.13;;;-131.54
32827;BMP280;51059;42.058;27.986;2024-02-16T12:06:06;78648.31;;;-131.54
32827;BMP280;51059;42.058;27.986;2024-02-16T12:08:34;78640.56;;;-131.54
32827;BMP280;51059;42.058;27.986;2024-02-16T12:11:02;78642.50;;;-131.54
32827;BMP280;51059;42.058;27.986;2024-02-16T12:13:29;78665.75;;;-131.54
32827;BMP280;51059;42.058;27.986;2024-02-16T12:15:54;78659.94;;;-131.54
32827;BMP280;51059;42.058;27.986;2024-02-16T12:18:25;78656.06;;;-131.54
32827;BMP280;51059;42.058;27.986;2024-02-16T12:21:04;78692.91;;;-131.54
32827;BMP280;51059;42.058;27.986;2024-02-16T12:23:33;78654.13;;;-131.54
32827;BMP280;51059;42.058;27.986;2024-02-16T12:26:00;78663.81;;;-131.54
32827;BMP280;51059;42.058;27.986;2024-02-16T12:28:29;78661.88;;;-131.54
32827;BMP280;51059;42.058;27.986;2024-02-16T12:30:55;78656.06;;;-131.54
32827;BMP280;51059;42.058;27.986;2024-02-16T12:33:25;78646.38;;;-131.54
32827;BMP280;51059;42.058;27.986;2024-02-16T12:35:51;78661.88;;;-131.54
32827;BMP280;51059;42.058;27.986;2024-02-16T12:38:17;78661.88;;;-131.54
32827;BMP280;51059;42.058;27.986;2024-02-16T12:40:49;78659.94;;;-131.54
32827;BMP280;51059;42.058;27.986;2024-02-16T12:43:15;78658.00;;;-131.54
32827;BMP280;51059;42.058;27.986;2024-02-16T12:45:41;78661.88;;;-131.54
32827;BMP280;51059;42.058;27.986;2024-02-16T12:48:07;78665.75;;;-131.54
32827;BMP280;51059;42.058;27.986;2024-02-16T12:50:35;78690.97;;;-131.54
32827;BMP280;51059;42.058;27.986;2024-02-16T12:53:03;78675.47;;;-131.54
32827;BMP280;51059;42.058;27.986;2024-02-16T12:55:29;78681.28;;;-131.54
32827;BMP280;51059;42.058;27.986;2024-02-16T12:57:56;78667.69;;;-131.54
32827;BMP280;51059;42.058;27.986;2024-02-16T13:00:23;78663.81;;;-131.54
32827;BMP280;51059;42.058;27.986;2024-02-16T13:02:49;78665.75;;;-131.54
32827;BMP280;51059;42.058;27.986;2024-02-16T13:05:15;78677.41;;;-131.54
32827;BMP280;51059;42.058;27.986;2024-02-16T13:07:41;78663.81;;;-131.54
32827;BMP280;51059;42.058;27.986;2024-02-16T13:10:08;78663.81;;;-131.54
32827;BMP280;51059;42.058;27.986;2024-02-16T13:12:37;78659.94;;;-131.54
32827;BMP280;51059;42.058;27.986;2024-02-16T13:15:04;78667.69;;;-131.54
32827;BMP280;51059;42.058;27.986;2024-02-16T13:17:32;78648.31;;;-131.54
32827;BMP280;51059;42.058;27.986;2024-02-16T13:20:00;78665.75;;;-131.54
32827;BMP280;51059;42.058;27.986;2024-02-16T13:22:33;78677.41;;;-131.54
32827;BMP280;51059;42.058;27.986;2024-02-16T13:25:00;78648.31;;;-131.54
32827;BMP280;51059;42.058;27.986;2024-02-16T13:27:26;78652.19;;;-131.54
32827;BMP280;51059;42.058;27.986;2024-02-16T13:29:53;78659.94;;;-131.54
32827;BMP280;51059;42.058;27.986;2024-02-16T13:32:21;78675.47;;;-131.54
32827;BMP280;51059;42.058;27.986;2024-02-16T13:34:48;78671.59;;;-131.54
32827;BMP280;51059;42.058;27.986;2024-02-16T13:37:14;78679.34;;;-131.54